createdAt,value
2023-01-17T00:08:47.753Z,0.65
2023-01-17T00:19:12.223Z,0.35
2023-01-17T00:29:21.809Z,0.07
2023-01-17T00:39:28.537Z,0.03
2023-01-17T00:50:21.745Z,0.07
2023-01-17T01:01:08.066Z,0.10
2023-01-17T01:11:51.181Z,0.07
2023-01-17T01:23:15.568Z,-0.08
2023-01-17T01:34:07.510Z,-0.13
2023-01-17T01:44:51.402Z,-0.17
2023-01-17T01:55:06.799Z,-0.25
2023-01-17T02:05:43.885Z,-0.14
2023-01-17T02:16:23.156Z,-0.03
2023-01-17T02:26:52.684Z,0.49
2023-01-17T02:37:09.279Z,1.02
2023-01-17T02:47:46.994Z,1.42
2023-01-17T02:58:42.139Z,1.70
2023-01-17T03:08:57.166Z,1.92
2023-01-17T03:19:16.416Z,2.12
2023-01-17T03:29:40.814Z,2.28
2023-01-17T03:40:10.115Z,2.40
2023-01-17T03:50:14.364Z,2.31
2023-01-17T04:00:40.222Z,2.24
2023-01-17T04:11:07.317Z,2.22
2023-01-17T04:21:24.383Z,2.08
2023-01-17T04:31:31.226Z,1.86
2023-01-17T04:41:45.624Z,1.55
2023-01-17T04:51:52.783Z,1.34
2023-01-17T05:02:20.161Z,1.27
2023-01-17T05:12:41.268Z,1.29
2023-01-17T05:22:47.669Z,1.46
2023-01-17T05:33:02.819Z,1.78
2023-01-17T05:43:12.821Z,1.90
2023-01-17T05:53:20.599Z,1.92
2023-01-17T06:03:27.201Z,2.01
2023-01-17T06:13:38.952Z,2.11
2023-01-17T06:23:58.476Z,2.18
2023-01-17T06:34:05.933Z,2.28
2023-01-17T06:44:13.140Z,2.24
2023-01-17T06:54:20.470Z,2.14
2023-01-17T07:04:30.378Z,2.15
2023-01-17T07:14:45.017Z,2.26
2023-01-17T07:25:14.752Z,2.44
2023-01-17T07:35:42.285Z,2.58
2023-01-17T07:46:01.979Z,2.71
2023-01-17T07:56:29.467Z,2.90
2023-01-17T08:07:25.960Z,3.09
2023-01-17T08:18:01.367Z,3.20
2023-01-17T08:28:14.188Z,3.22
2023-01-17T08:39:08.726Z,3.36
2023-01-17T08:49:53.465Z,3.54
2023-01-17T09:00:28.847Z,3.56
2023-01-17T09:11:09.818Z,3.66
2023-01-17T09:21:37.861Z,3.91
2023-01-17T09:31:58.231Z,4.52
2023-01-17T09:42:05.128Z,4.86
2023-01-17T09:52:42.286Z,4.90
2023-01-17T10:03:46.637Z,5.19
2023-01-17T10:14:21.986Z,5.73
2023-01-17T10:25:09.149Z,6.11
2023-01-17T10:35:48.437Z,6.23
2023-01-17T10:46:41.751Z,6.12
2023-01-17T10:57:19.359Z,5.86
2023-01-17T11:08:10.090Z,5.59
2023-01-17T11:19:15.257Z,5.48
2023-01-17T11:30:37.075Z,5.41
2023-01-17T11:41:20.998Z,5.31
2023-01-17T11:51:56.831Z,5.06
2023-01-17T12:03:16.386Z,4.96
2023-01-17T12:14:01.867Z,4.92
2023-01-17T12:24:17.169Z,4.88
2023-01-17T12:34:47.554Z,4.71
2023-01-17T12:45:20.550Z,4.71
2023-01-17T12:55:41.450Z,4.81
2023-01-17T13:05:53.791Z,4.77
2023-01-17T13:16:03.700Z,4.69
2023-01-17T13:26:21.065Z,4.60
2023-01-17T13:36:42.730Z,4.58
2023-01-17T13:47:26.622Z,4.45
2023-01-17T13:57:42.378Z,4.25
2023-01-17T14:08:13.466Z,4.20
2023-01-17T14:18:37.296Z,4.23
2023-01-17T14:28:56.261Z,4.14
2023-01-17T14:39:00.582Z,4.00
2023-01-17T14:49:25.721Z,3.86
2023-01-17T14:59:29.785Z,3.58
2023-01-17T15:09:37.436Z,3.20
2023-01-17T15:19:44.382Z,2.87
2023-01-17T15:29:53.167Z,2.61
2023-01-17T15:40:18.322Z,2.26
2023-01-17T15:50:32.340Z,1.94
2023-01-17T16:00:45.521Z,1.71
2023-01-17T16:10:55.401Z,1.49
2023-01-17T16:21:02.408Z,1.49
2023-01-17T16:31:08.552Z,1.43
2023-01-17T16:41:13.492Z,1.42
2023-01-17T16:51:17.649Z,1.39
2023-01-17T17:01:23.348Z,1.48
2023-01-17T17:11:27.745Z,1.63
2023-01-17T17:21:36.326Z,1.54
2023-01-17T17:31:46.603Z,1.26
2023-01-17T17:41:53.987Z,1.21
2023-01-17T17:52:21.582Z,1.25
2023-01-17T18:02:27.344Z,1.36
2023-01-17T18:12:32.382Z,1.33
2023-01-17T18:22:37.653Z,1.22
2023-01-17T18:32:52.326Z,1.23
2023-01-17T18:42:59.356Z,1.20
2023-01-17T18:53:07.145Z,1.28
2023-01-17T19:03:19.866Z,1.33
2023-01-17T19:13:28.589Z,1.39
2023-01-17T19:23:37.764Z,1.38
2023-01-17T19:33:45.477Z,1.55
2023-01-17T19:44:05.823Z,1.68
2023-01-17T19:54:11.562Z,1.63
2023-01-17T20:04:19.557Z,1.60
2023-01-17T20:14:28.015Z,1.71
2023-01-17T20:24:34.007Z,1.88
2023-01-17T20:34:39.031Z,2.02
2023-01-17T20:44:44.208Z,2.03
2023-01-17T20:54:52.644Z,2.11
2023-01-17T21:04:59.088Z,2.18
2023-01-17T21:15:03.128Z,2.26
2023-01-17T21:25:08.076Z,2.25
2023-01-17T21:35:12.527Z,2.25
2023-01-17T21:45:16.557Z,2.29
2023-01-17T21:55:39.436Z,2.36
2023-01-17T22:05:43.437Z,2.44
2023-01-17T22:15:58.992Z,2.41
2023-01-17T22:26:07.655Z,2.46
2023-01-17T22:36:16.438Z,2.71
2023-01-17T22:46:26.293Z,2.83
2023-01-17T22:56:32.833Z,2.71
2023-01-17T23:06:39.487Z,2.58
2023-01-17T23:17:08.621Z,2.51
2023-01-17T23:27:50.543Z,2.48
2023-01-17T23:38:13.409Z,2.32
2023-01-17T23:48:17.521Z,2.23
2023-01-17T23:58:40.612Z,2.14
